createdAt,value
2022-09-20T00:03:09.210Z,65.13
2022-09-20T00:07:18.425Z,63.52
2022-09-20T00:11:27.646Z,63.02
2022-09-20T00:15:19.214Z,64.30
2022-09-20T00:19:23.127Z,66.10
2022-09-20T00:23:23.937Z,66.98
2022-09-20T00:27:21.075Z,67.64
2022-09-20T00:31:19.406Z,65.01
2022-09-20T00:35:28.591Z,63.78
2022-09-20T00:39:30.707Z,64.66
2022-09-20T00:43:33.939Z,65.50
2022-09-20T00:47:31.223Z,66.62
2022-09-20T00:51:34.052Z,67.58
2022-09-20T00:55:42.287Z,64.85
2022-09-20T01:00:02.342Z,64.18
2022-09-20T01:04:10.542Z,64.59
2022-09-20T01:08:18.754Z,65.90
2022-09-20T01:12:28.974Z,67.16
2022-09-20T01:16:37.366Z,67.40
2022-09-20T01:20:40.650Z,65.61
2022-09-20T01:24:47.319Z,64.86
2022-09-20T01:28:55.507Z,65.71
2022-09-20T01:32:54.032Z,66.64
2022-09-20T01:37:03.286Z,67.32
2022-09-20T01:41:01.466Z,64.89
2022-09-20T01:45:07.075Z,64.54
2022-09-20T01:49:23.787Z,65.42
2022-09-20T01:53:30.299Z,66.02
2022-09-20T01:57:37.318Z,66.65
2022-09-20T02:02:14.033Z,66.67
2022-09-20T02:06:28.283Z,64.78
2022-09-20T02:10:48.355Z,65.34
2022-09-20T02:15:08.852Z,66.50
2022-09-20T02:19:35.790Z,65.91
2022-09-20T02:23:29.994Z,63.87
2022-09-20T02:27:56.590Z,64.21
2022-09-20T02:31:57.560Z,65.11
2022-09-20T02:36:11.572Z,66.15
2022-09-20T02:40:47.408Z,66.40
2022-09-20T02:45:13.550Z,64.71
2022-09-20T02:49:37.024Z,64.75
2022-09-20T02:53:54.264Z,65.80
2022-09-20T02:57:59.474Z,66.56
2022-09-20T03:02:04.609Z,67.58
2022-09-20T03:06:07.410Z,64.62
2022-09-20T03:10:33.785Z,63.66
2022-09-20T03:14:44.792Z,64.19
2022-09-20T03:21:24.432Z,66.28
2022-09-20T03:25:44.894Z,66.14
2022-09-20T03:29:58.479Z,65.70
2022-09-20T03:34:30.855Z,66.22
2022-09-20T03:38:37.870Z,66.61
2022-09-20T03:42:48.196Z,66.12
2022-09-20T03:46:59.441Z,66.48
2022-09-20T03:51:17.116Z,68.26
2022-09-20T03:55:30.131Z,65.51
2022-09-20T03:59:55.139Z,65.30
2022-09-20T04:03:45.621Z,66.05
2022-09-20T04:07:56.693Z,67.04
2022-09-20T04:12:04.899Z,68.08
2022-09-20T04:16:40.654Z,65.39
2022-09-20T04:20:36.089Z,65.14
2022-09-20T04:24:43.810Z,66.08
2022-09-20T04:28:48.652Z,66.60
2022-09-20T04:32:46.307Z,67.54
2022-09-20T04:37:13.643Z,68.27
2022-09-20T04:41:27.874Z,64.77
2022-09-20T04:45:55.931Z,65.06
2022-09-20T04:50:01.509Z,65.01
2022-09-20T04:54:06.825Z,66.62
2022-09-20T04:57:38.189Z,67.34
2022-09-20T05:01:51.993Z,64.10
2022-09-20T05:05:35.671Z,63.54
2022-09-20T05:09:46.072Z,64.77
2022-09-20T05:13:57.362Z,65.13
2022-09-20T05:17:43.727Z,66.32
2022-09-20T05:22:11.212Z,63.51
2022-09-20T05:26:37.501Z,62.72
2022-09-20T05:30:33.703Z,63.89
2022-09-20T05:34:10.042Z,65.18
2022-09-20T05:37:42.661Z,66.29
2022-09-20T05:41:19.414Z,64.45
2022-09-20T05:45:10.180Z,63.12
2022-09-20T05:49:20.429Z,63.16
2022-09-20T05:53:50.855Z,64.09
2022-09-20T05:58:03.492Z,65.14
2022-09-20T06:02:11.635Z,65.99
2022-09-20T06:06:18.248Z,63.30
2022-09-20T06:10:26.392Z,63.06
2022-09-20T06:14:26.238Z,64.01
2022-09-20T06:18:26.249Z,64.81
2022-09-20T06:22:40.709Z,65.16
2022-09-20T06:26:44.654Z,62.62
2022-09-20T06:30:58.780Z,62.44
2022-09-20T06:35:07.128Z,63.80
2022-09-20T06:39:14.121Z,64.70
2022-09-20T06:43:21.991Z,64.94
2022-09-20T06:47:19.998Z,62.77
2022-09-20T06:51:28.282Z,62.35
2022-09-20T06:54:57.307Z,62.75
2022-09-20T06:58:48.079Z,63.72
2022-09-20T07:02:14.308Z,64.18
2022-09-20T07:05:02.260Z,65.09
2022-09-20T07:08:32.608Z,64.45
2022-09-20T07:12:32.023Z,62.26
2022-09-20T07:16:42.197Z,62.83
2022-09-20T07:20:06.722Z,63.19
2022-09-20T07:23:36.091Z,63.54
2022-09-20T07:27:37.591Z,64.07
2022-09-20T07:31:37.576Z,62.02
2022-09-20T07:35:44.998Z,61.28
2022-09-20T07:39:33.189Z,61.82
2022-09-20T07:43:41.355Z,62.88
2022-09-20T07:47:49.527Z,62.90
2022-09-20T07:51:37.713Z,63.54
2022-09-20T07:55:29.303Z,61.43
2022-09-20T07:58:56.006Z,60.10
2022-09-20T08:02:56.207Z,59.86
2022-09-20T08:06:43.102Z,58.67
2022-09-20T08:10:26.769Z,59.92
2022-09-20T08:14:16.842Z,61.54
2022-09-20T08:17:38.290Z,60.76
2022-09-20T08:21:37.714Z,58.87
2022-09-20T08:25:17.430Z,58.03
2022-09-20T08:29:08.490Z,57.71
2022-09-20T08:32:57.653Z,58.90
2022-09-20T08:36:25.133Z,58.74
2022-09-20T08:40:01.225Z,58.99
2022-09-20T08:44:09.458Z,59.27
2022-09-20T08:48:07.549Z,60.70
2022-09-20T08:52:10.432Z,57.38
2022-09-20T08:56:09.303Z,56.32
2022-09-20T09:00:03.119Z,58.02
2022-09-20T09:03:57.598Z,57.91
2022-09-20T09:07:45.689Z,59.20
2022-09-20T09:11:45.466Z,59.35
2022-09-20T09:15:46.643Z,60.57
2022-09-20T09:20:07.058Z,61.66
2022-09-20T09:23:43.617Z,59.16
2022-09-20T09:27:48.337Z,56.49
2022-09-20T09:31:28.911Z,57.35
2022-09-20T09:35:29.891Z,56.35
2022-09-20T09:39:30.700Z,58.29
2022-09-20T09:43:23.582Z,56.41
2022-09-20T09:47:31.730Z,55.90
2022-09-20T09:51:55.296Z,56.13
2022-09-20T09:55:19.955Z,56.92
2022-09-20T09:58:57.759Z,57.11
2022-09-20T10:02:56.091Z,57.02
2022-09-20T10:07:31.602Z,58.04
2022-09-20T10:11:45.614Z,57.30
2022-09-20T10:15:59.574Z,57.54
2022-09-20T10:20:13.561Z,58.37
2022-09-20T10:24:14.721Z,58.79
2022-09-20T10:28:31.582Z,59.45
2022-09-20T10:32:41.812Z,56.46
2022-09-20T10:37:11.383Z,55.86
2022-09-20T10:41:19.830Z,56.86
2022-09-20T10:45:59.487Z,57.74
2022-09-20T10:49:57.127Z,58.28
2022-09-20T10:53:43.934Z,59.29
2022-09-20T10:57:47.337Z,60.11
2022-09-20T11:01:55.687Z,58.79
2022-09-20T11:06:04.949Z,59.32
2022-09-20T11:10:13.201Z,56.80
2022-09-20T11:14:06.951Z,56.58
2022-09-20T11:18:18.256Z,57.14
2022-09-20T11:22:39.979Z,57.39
2022-09-20T11:26:30.789Z,58.73
2022-09-20T11:30:38.618Z,59.29
2022-09-20T11:34:32.092Z,59.69
2022-09-20T11:38:28.926Z,60.95
2022-09-20T11:42:30.495Z,58.21
2022-09-20T11:46:15.307Z,58.38
2022-09-20T11:49:27.049Z,58.77
2022-09-20T11:53:27.630Z,60.36
2022-09-20T11:57:31.413Z,61.87
2022-09-20T12:01:09.541Z,63.02
2022-09-20T12:04:32.846Z,63.76
2022-09-20T12:08:21.335Z,61.99
2022-09-20T12:12:01.851Z,61.32
2022-09-20T12:16:15.088Z,61.51
2022-09-20T12:20:23.256Z,62.82
2022-09-20T12:23:58.979Z,63.40
2022-09-20T12:27:27.129Z,64.02
2022-09-20T12:31:21.777Z,61.77
2022-09-20T12:34:29.666Z,60.57
2022-09-20T12:36:57.087Z,61.11
2022-09-20T12:40:25.252Z,61.50
2022-09-20T12:44:16.716Z,63.21
2022-09-20T12:47:53.753Z,63.88
2022-09-20T12:52:15.559Z,63.56
2022-09-20T12:56:39.513Z,64.35
2022-09-20T13:00:25.123Z,61.15
2022-09-20T13:04:32.827Z,61.03
2022-09-20T13:08:08.163Z,62.13
2022-09-20T13:11:29.246Z,62.58
2022-09-20T13:14:40.673Z,62.94
2022-09-20T13:18:11.680Z,63.35
2022-09-20T13:21:24.400Z,61.81
2022-09-20T13:25:14.321Z,60.30
2022-09-20T13:29:25.256Z,61.12
2022-09-20T13:33:22.095Z,61.89
2022-09-20T13:37:14.319Z,61.55
2022-09-20T13:41:11.898Z,62.27
2022-09-20T13:44:32.245Z,63.18
2022-09-20T13:48:15.348Z,61.39
2022-09-20T13:51:47.856Z,59.45
2022-09-20T13:55:16.723Z,59.81
2022-09-20T13:58:43.164Z,60.25
2022-09-20T14:02:29.285Z,61.12
2022-09-20T14:06:32.270Z,61.85
2022-09-20T14:10:34.511Z,63.36
2022-09-20T14:14:22.644Z,60.17
2022-09-20T14:17:55.528Z,59.19
2022-09-20T14:21:46.500Z,59.81
2022-09-20T14:26:03.339Z,60.93
2022-09-20T14:30:02.829Z,62.07
2022-09-20T14:33:33.342Z,62.42
2022-09-20T14:36:48.935Z,63.46
2022-09-20T14:40:48.378Z,60.69
2022-09-20T14:44:11.571Z,59.84
2022-09-20T14:47:39.659Z,60.16
2022-09-20T14:51:47.028Z,60.94
2022-09-20T14:56:02.486Z,62.36
2022-09-20T14:59:59.378Z,62.96
2022-09-20T15:03:38.583Z,63.79
2022-09-20T15:07:47.913Z,61.89
2022-09-20T15:11:50.086Z,61.58
2022-09-20T15:15:19.118Z,61.88
2022-09-20T15:19:10.759Z,62.79
2022-09-20T15:22:41.533Z,63.82
2022-09-20T15:26:37.251Z,64.47
2022-09-20T15:30:07.598Z,62.35
2022-09-20T15:32:45.326Z,61.92
2022-09-20T15:36:37.096Z,61.94
2022-09-20T15:40:35.604Z,62.54
2022-09-20T15:43:22.125Z,63.03
2022-09-20T15:47:01.206Z,63.44
2022-09-20T15:50:32.871Z,64.48
2022-09-20T15:54:16.511Z,62.39
2022-09-20T15:57:00.134Z,61.21
2022-09-20T15:59:53.741Z,61.73
2022-09-20T16:03:05.081Z,62.40
2022-09-20T16:06:53.342Z,64.09
2022-09-20T16:11:03.643Z,65.04
2022-09-20T16:14:14.015Z,62.45
2022-09-20T16:17:26.011Z,62.31
2022-09-20T16:21:34.404Z,62.36
2022-09-20T16:25:35.515Z,63.16
2022-09-20T16:29:12.473Z,63.91
2022-09-20T16:32:44.883Z,65.08
2022-09-20T16:36:07.772Z,62.37
2022-09-20T16:39:18.887Z,61.57
2022-09-20T16:42:04.879Z,62.01
2022-09-20T16:45:23.776Z,62.45
2022-09-20T16:48:42.396Z,63.40
2022-09-20T16:51:48.128Z,63.72
2022-09-20T16:54:38.443Z,64.16
2022-09-20T16:57:32.142Z,63.18
2022-09-20T17:00:59.955Z,61.96
2022-09-20T17:04:45.426Z,62.17
2022-09-20T17:08:36.186Z,62.95
2022-09-20T17:12:34.191Z,63.86
2022-09-20T17:16:34.532Z,64.80
2022-09-20T17:20:43.777Z,62.46
2022-09-20T17:24:39.211Z,62.06
2022-09-20T17:28:49.452Z,62.89
2022-09-20T17:32:20.539Z,63.80
2022-09-20T17:35:22.205Z,64.93
2022-09-20T17:39:30.528Z,66.06
2022-09-20T17:43:37.956Z,63.08
2022-09-20T17:46:45.054Z,62.45
2022-09-20T17:49:19.957Z,62.63
2022-09-20T17:52:39.000Z,63.01
2022-09-20T17:55:38.219Z,64.10
2022-09-20T17:59:04.406Z,64.38
2022-09-20T18:03:06.301Z,65.14
2022-09-20T18:07:05.129Z,62.93
2022-09-20T18:10:48.434Z,62.53
2022-09-20T18:14:20.964Z,63.06
2022-09-20T18:17:21.102Z,63.91
2022-09-20T18:20:49.358Z,64.60
2022-09-20T18:24:45.060Z,65.25
2022-09-20T18:28:38.699Z,63.46
2022-09-20T18:31:58.365Z,63.06
2022-09-20T18:35:46.749Z,63.35
2022-09-20T18:39:16.794Z,64.62
2022-09-20T18:43:04.465Z,65.33
2022-09-20T18:46:49.959Z,65.90
2022-09-20T18:50:32.087Z,63.37
2022-09-20T18:53:38.492Z,63.36
2022-09-20T18:57:12.780Z,63.56
2022-09-20T19:00:20.346Z,64.45
2022-09-20T19:03:59.825Z,65.61
2022-09-20T19:07:48.191Z,66.65
2022-09-20T19:11:48.205Z,64.35
2022-09-20T19:15:51.211Z,63.67
2022-09-20T19:19:55.271Z,63.28
2022-09-20T19:23:42.555Z,65.34
2022-09-20T19:26:40.783Z,64.98
2022-09-20T19:30:36.020Z,66.28
2022-09-20T19:34:19.697Z,63.65
2022-09-20T19:38:31.498Z,62.68
2022-09-20T19:42:41.229Z,63.72
2022-09-20T19:46:34.931Z,64.11
2022-09-20T19:49:57.527Z,64.58
2022-09-20T19:52:25.338Z,65.24
2022-09-20T19:55:39.370Z,63.93
2022-09-20T19:58:51.195Z,62.49
2022-09-20T20:02:17.347Z,62.70
2022-09-20T20:06:31.638Z,63.91
2022-09-20T20:10:44.894Z,64.58
2022-09-20T20:14:36.486Z,66.07
2022-09-20T20:18:25.485Z,63.36
2022-09-20T20:22:29.683Z,62.86
2022-09-20T20:26:49.943Z,63.66
2022-09-20T20:30:50.603Z,64.59
2022-09-20T20:34:23.198Z,65.63
2022-09-20T20:38:14.017Z,64.53
2022-09-20T20:42:22.298Z,63.62
2022-09-20T20:46:19.136Z,64.09
2022-09-20T20:50:18.426Z,63.70
2022-09-20T20:53:49.483Z,64.10
2022-09-20T20:57:46.524Z,65.71
2022-09-20T21:01:24.053Z,63.54
2022-09-20T21:05:08.389Z,63.15
2022-09-20T21:09:09.503Z,64.16
2022-09-20T21:13:12.376Z,65.11
2022-09-20T21:17:22.540Z,65.90
2022-09-20T21:21:21.694Z,63.78
2022-09-20T21:24:49.321Z,63.48
2022-09-20T21:27:32.254Z,64.22
2022-09-20T21:30:25.566Z,64.87
2022-09-20T21:33:36.310Z,64.86
2022-09-20T21:36:58.470Z,66.56
2022-09-20T21:40:45.392Z,63.82
2022-09-20T21:44:34.687Z,62.57
2022-09-20T21:48:09.312Z,63.89
2022-09-20T21:51:57.739Z,65.10
2022-09-20T21:55:58.798Z,66.12
2022-09-20T22:00:01.621Z,67.06
2022-09-20T22:03:49.663Z,64.59
2022-09-20T22:07:50.507Z,63.86
2022-09-20T22:11:56.511Z,65.14
2022-09-20T22:15:27.836Z,64.98
2022-09-20T22:18:38.372Z,65.76
2022-09-20T22:22:47.748Z,64.59
2022-09-20T22:27:01.989Z,64.23
2022-09-20T22:31:12.079Z,64.58
2022-09-20T22:35:12.765Z,65.71
2022-09-20T22:39:20.939Z,65.75
2022-09-20T22:43:29.469Z,63.98
2022-09-20T22:47:37.581Z,63.19
2022-09-20T22:51:41.606Z,64.28
2022-09-20T22:55:37.270Z,65.85
2022-09-20T22:59:45.440Z,67.21
2022-09-20T23:03:53.704Z,65.08
2022-09-20T23:08:02.944Z,64.60
2022-09-20T23:11:57.108Z,65.55
2022-09-20T23:16:05.369Z,66.62
2022-09-20T23:20:13.540Z,66.77
2022-09-20T23:24:14.557Z,64.62
2022-09-20T23:28:16.249Z,64.37
2022-09-20T23:32:24.383Z,64.69
2022-09-20T23:36:14.926Z,65.91
2022-09-20T23:40:23.145Z,66.87
2022-09-20T23:44:30.263Z,64.24
2022-09-20T23:48:28.852Z,64.45
2022-09-20T23:52:37.016Z,65.29
2022-09-20T23:56:45.191Z,65.51
